createdAt,value
2019-05-14T00:00:11.240Z,2.00
2019-05-14T00:02:41.325Z,2.10
2019-05-14T00:05:08.935Z,1.67
2019-05-14T00:07:36.932Z,2.10
2019-05-14T00:10:05.467Z,1.80
2019-05-14T00:12:33.545Z,2.23
2019-05-14T00:15:07.554Z,2.13
2019-05-14T00:17:37.644Z,2.07
2019-05-14T00:20:09.792Z,1.77
2019-05-14T00:22:35.499Z,2.00
2019-05-14T00:25:03.566Z,1.60
2019-05-14T00:27:31.566Z,2.03
2019-05-14T00:29:59.569Z,2.13
2019-05-14T00:32:27.549Z,2.03
2019-05-14T00:34:55.638Z,2.00
2019-05-14T00:37:23.793Z,2.47
2019-05-14T00:39:52.349Z,2.50
2019-05-14T00:42:22.946Z,2.47
2019-05-14T00:44:56.880Z,2.40
2019-05-14T00:47:21.764Z,2.03
2019-05-14T00:49:51.683Z,2.40
2019-05-14T00:52:22.057Z,2.23
2019-05-14T00:54:49.343Z,2.40
2019-05-14T00:57:17.410Z,2.23
2019-05-14T01:03:29.115Z,2.47
2019-05-14T01:09:32.782Z,2.63
2019-05-14T01:22:52.601Z,2.50
2019-05-14T01:26:37.991Z,2.40
2019-05-14T01:48:41.746Z,2.60
2019-05-14T02:02:37.535Z,2.47
2019-05-14T02:05:13.256Z,2.13
2019-05-14T02:07:52.703Z,2.67
2019-05-14T02:10:22.107Z,2.23
2019-05-14T02:13:36.806Z,2.87
2019-05-14T02:15:56.478Z,2.67
2019-05-14T02:18:24.594Z,2.30
2019-05-14T02:21:07.516Z,2.63
2019-05-14T02:23:34.604Z,2.50
2019-05-14T02:26:37.409Z,2.73
2019-05-14T02:29:21.548Z,3.03
2019-05-14T02:34:40.111Z,2.77
2019-05-14T02:37:09.370Z,2.97
2019-05-14T02:39:40.559Z,2.50
2019-05-14T02:42:09.403Z,2.27
2019-05-14T02:44:40.314Z,3.00
2019-05-14T02:47:09.617Z,2.90
2019-05-14T02:49:39.336Z,2.80
2019-05-14T02:52:09.591Z,3.13
2019-05-14T02:54:35.506Z,2.50
2019-05-14T02:57:03.480Z,3.20
2019-05-14T03:06:54.135Z,2.83
2019-05-14T03:26:39.815Z,2.90
2019-05-14T03:29:09.902Z,3.03
2019-05-14T03:31:41.859Z,3.17
2019-05-14T03:34:12.672Z,2.90
2019-05-14T03:40:50.883Z,3.00
2019-05-14T03:47:23.154Z,3.13
2019-05-14T04:04:09.955Z,2.50
2019-05-14T04:14:24.608Z,2.87
2019-05-14T04:19:29.577Z,3.03
2019-05-14T04:32:39.923Z,2.80
2019-05-14T04:35:09.613Z,2.67
2019-05-14T04:44:40.807Z,2.70
2019-05-14T04:47:22.808Z,2.60
2019-05-14T04:49:39.874Z,2.07
2019-05-14T04:52:10.112Z,2.63
2019-05-14T04:54:39.428Z,2.37
2019-05-14T04:57:10.280Z,2.07
2019-05-14T04:59:39.668Z,2.07
2019-05-14T05:02:09.553Z,2.63
2019-05-14T05:04:40.903Z,2.37
2019-05-14T05:07:59.658Z,2.50
2019-05-14T05:10:29.563Z,2.40
2019-05-14T05:12:58.623Z,2.43
2019-05-14T05:15:28.872Z,2.30
2019-05-14T05:17:58.743Z,2.20
2019-05-14T05:20:25.647Z,2.47
2019-05-14T05:22:53.697Z,2.20
2019-05-14T05:25:21.680Z,2.57
2019-05-14T05:27:49.749Z,2.00
2019-05-14T05:30:19.010Z,1.93
2019-05-14T05:32:49.612Z,1.83
2019-05-14T05:35:18.624Z,2.00
2019-05-14T05:37:48.848Z,2.37
2019-05-14T05:40:19.470Z,2.10
2019-05-14T05:42:48.715Z,2.37
2019-05-14T05:45:18.436Z,1.80
2019-05-14T05:47:55.237Z,2.00
2019-05-14T05:50:19.309Z,1.73
2019-05-14T05:52:49.457Z,1.93
2019-05-14T05:55:20.317Z,2.00
2019-05-14T05:57:49.180Z,1.60
2019-05-14T06:00:20.355Z,1.90
2019-05-14T06:02:49.713Z,1.57
2019-05-14T06:05:19.439Z,1.93
2019-05-14T06:07:50.515Z,2.30
2019-05-14T06:10:18.781Z,1.77
2019-05-14T06:12:48.997Z,1.87
2019-05-14T06:15:19.105Z,1.80
2019-05-14T06:17:49.376Z,2.00
2019-05-14T06:20:18.938Z,2.33
2019-05-14T06:22:48.935Z,1.80
2019-05-14T06:25:20.877Z,1.90
2019-05-14T06:27:48.598Z,1.70
2019-05-14T06:30:19.064Z,1.60
2019-05-14T06:32:48.766Z,1.80
2019-05-14T06:35:19.257Z,1.60
2019-05-14T06:37:48.808Z,1.70
2019-05-14T06:40:16.332Z,1.33
2019-05-14T06:42:44.356Z,2.13
2019-05-14T06:45:12.768Z,1.70
2019-05-14T06:47:40.790Z,1.47
2019-05-14T06:50:08.853Z,1.50
2019-05-14T06:52:38.727Z,1.97
2019-05-14T06:55:08.982Z,1.70
2019-05-14T06:57:39.088Z,1.33
2019-05-14T07:00:08.291Z,1.67
2019-05-14T07:02:42.635Z,1.70
2019-05-14T07:05:08.416Z,1.40
2019-05-14T07:07:40.101Z,1.50
2019-05-14T07:10:08.778Z,1.10
2019-05-14T07:12:38.519Z,1.70
2019-05-14T07:15:09.251Z,1.43
2019-05-14T07:17:38.416Z,1.70
2019-05-14T07:20:08.877Z,1.67
2019-05-14T07:22:39.064Z,1.70
2019-05-14T07:25:09.685Z,1.50
2019-05-14T07:27:39.024Z,1.57
2019-05-14T07:30:09.249Z,1.70
2019-05-14T07:32:39.550Z,2.13
2019-05-14T07:35:09.121Z,1.50
2019-05-14T07:37:39.599Z,1.70
2019-05-14T07:40:08.536Z,1.50
2019-05-14T07:42:38.397Z,1.57
2019-05-14T07:45:06.609Z,1.63
2019-05-14T07:47:34.612Z,2.17
2019-05-14T07:50:02.762Z,1.53
2019-05-14T07:52:32.829Z,1.23
2019-05-14T07:55:01.020Z,1.40
2019-05-14T07:57:29.233Z,1.47
2019-05-14T07:59:58.849Z,1.47
2019-05-14T08:02:28.950Z,1.33
2019-05-14T08:04:59.953Z,1.70
2019-05-14T08:07:28.282Z,1.40
2019-05-14T08:09:58.343Z,1.33
2019-05-14T08:12:28.395Z,1.60
2019-05-14T08:15:14.325Z,1.70
2019-05-14T08:17:32.124Z,1.37
2019-05-14T08:20:08.879Z,1.57
2019-05-14T08:22:38.286Z,0.90
2019-05-14T08:25:08.559Z,1.13
2019-05-14T08:27:38.647Z,1.00
2019-05-14T08:30:08.227Z,1.20
2019-05-14T08:32:39.184Z,1.00
2019-05-14T08:35:09.056Z,1.03
2019-05-14T08:37:38.741Z,1.17
2019-05-14T08:40:09.273Z,0.93
2019-05-14T08:42:38.296Z,1.00
2019-05-14T08:45:10.581Z,1.33
2019-05-14T08:47:38.853Z,0.80
2019-05-14T08:50:09.090Z,1.70
2019-05-14T08:52:39.142Z,1.20
2019-05-14T09:01:30.728Z,1.10
2019-05-14T09:03:59.515Z,1.03
2019-05-14T09:06:28.984Z,0.60
2019-05-14T09:08:59.577Z,1.17
2019-05-14T09:11:34.297Z,1.10
2019-05-14T09:13:59.246Z,1.10
2019-05-14T09:16:40.715Z,1.00
2019-05-14T09:18:58.185Z,0.80
2019-05-14T09:21:25.949Z,0.90
2019-05-14T09:23:54.044Z,1.20
2019-05-14T09:26:22.062Z,0.90
2019-05-14T09:28:50.133Z,0.90
2019-05-14T09:31:19.659Z,0.97
2019-05-14T09:33:49.401Z,1.00
2019-05-14T09:36:23.425Z,1.07
2019-05-14T09:38:49.088Z,0.90
2019-05-14T09:41:18.597Z,1.20
2019-05-14T09:43:48.694Z,1.17
2019-05-14T09:46:18.492Z,0.73
2019-05-14T09:48:48.409Z,1.07
2019-05-14T09:51:18.350Z,0.93
2019-05-14T09:53:45.792Z,1.30
2019-05-14T09:56:13.918Z,1.10
2019-05-14T09:58:42.117Z,1.10
2019-05-14T10:01:10.118Z,1.17
2019-05-14T10:03:39.273Z,1.60
2019-05-14T10:06:09.747Z,0.90
2019-05-14T10:08:39.039Z,0.90
2019-05-14T10:11:07.318Z,0.80
2019-05-14T10:13:36.069Z,0.90
2019-05-14T10:16:04.487Z,1.10
2019-05-14T10:18:33.567Z,1.00
2019-05-14T10:21:02.100Z,0.80
2019-05-14T10:23:30.130Z,0.97
2019-05-14T10:25:58.472Z,0.77
2019-05-14T10:28:28.842Z,0.80
2019-05-14T10:30:59.445Z,0.93
2019-05-14T10:33:28.761Z,0.80
2019-05-14T10:35:58.834Z,1.23
2019-05-14T10:38:29.358Z,1.10
2019-05-14T10:40:58.373Z,1.00
2019-05-14T10:43:28.812Z,0.90
2019-05-14T10:45:58.042Z,1.20
2019-05-14T10:48:26.308Z,1.30
2019-05-14T10:51:02.352Z,1.10
2019-05-14T10:53:28.997Z,1.00
2019-05-14T10:55:58.309Z,1.20
2019-05-14T10:58:28.855Z,1.47
2019-05-14T11:00:58.649Z,1.10
2019-05-14T11:03:30.148Z,1.50
2019-05-14T11:05:58.770Z,1.00
2019-05-14T11:08:29.782Z,1.30
2019-05-14T11:11:03.633Z,1.23
2019-05-14T11:13:29.571Z,1.20
2019-05-14T11:16:03.704Z,0.90
2019-05-14T11:18:32.496Z,1.47
2019-05-14T11:21:18.781Z,0.77
2019-05-14T11:23:30.503Z,1.10
2019-05-14T11:25:59.172Z,0.80
2019-05-14T11:28:32.104Z,0.70
2019-05-14T11:31:19.204Z,0.70
2019-05-14T11:33:49.700Z,0.90
2019-05-14T11:36:18.763Z,0.80
2019-05-14T11:38:50.254Z,0.87
2019-05-14T11:41:18.648Z,0.87
2019-05-14T11:43:52.875Z,0.67
2019-05-14T11:46:33.362Z,0.83
2019-05-14T11:48:51.946Z,1.53
2019-05-14T11:51:45.781Z,0.83
2019-05-14T11:53:50.892Z,0.77
2019-05-14T11:56:19.639Z,0.70
2019-05-14T11:58:48.417Z,0.90
2019-05-14T12:01:18.821Z,0.80
2019-05-14T12:03:49.962Z,0.87
2019-05-14T12:06:18.581Z,0.80
2019-05-14T12:08:47.059Z,0.87
2019-05-14T12:11:15.252Z,0.70
2019-05-14T12:13:43.815Z,0.70
2019-05-14T12:16:12.253Z,0.93
2019-05-14T12:18:41.830Z,0.63
2019-05-14T12:21:10.050Z,0.60
2019-05-14T12:23:39.314Z,0.80
2019-05-14T12:26:09.648Z,1.00
2019-05-14T12:28:38.689Z,1.27
2019-05-14T12:31:09.374Z,0.90
2019-05-14T12:33:39.301Z,0.90
2019-05-14T12:36:10.143Z,1.00
2019-05-14T12:38:38.251Z,0.57
2019-05-14T12:41:08.944Z,0.80
2019-05-14T12:43:39.385Z,0.90
2019-05-14T12:46:10.081Z,0.70
2019-05-14T12:48:38.683Z,0.83
2019-05-14T12:51:19.024Z,1.20
2019-05-14T12:53:48.788Z,1.00
2019-05-14T12:56:18.788Z,0.80
2019-05-14T12:58:48.997Z,0.70
2019-05-14T13:01:20.081Z,0.97
2019-05-14T13:03:48.542Z,1.00
2019-05-14T13:06:19.066Z,0.90
2019-05-14T13:08:49.046Z,0.77
2019-05-14T13:11:16.692Z,0.87
2019-05-14T13:13:45.306Z,0.93
2019-05-14T13:16:13.590Z,0.60
2019-05-14T13:18:41.736Z,0.93
2019-05-14T13:21:10.535Z,0.80
2019-05-14T13:23:38.582Z,0.90
2019-05-14T13:26:10.218Z,0.97
2019-05-14T13:28:39.291Z,1.20
2019-05-14T13:31:08.937Z,1.10
2019-05-14T13:33:39.043Z,0.90
2019-05-14T13:36:07.357Z,1.20
2019-05-14T13:38:35.553Z,1.20
2019-05-14T13:41:04.122Z,1.17
2019-05-14T13:43:34.353Z,0.80
2019-05-14T13:46:02.713Z,1.30
2019-05-14T13:48:31.409Z,1.13
2019-05-14T13:51:00.232Z,1.00
2019-05-14T13:53:29.595Z,0.70
2019-05-14T13:55:58.979Z,0.80
2019-05-14T13:58:28.744Z,0.90
2019-05-14T14:00:59.108Z,0.73
2019-05-14T14:03:29.272Z,1.00
2019-05-14T14:05:59.395Z,1.00
2019-05-14T14:08:29.248Z,0.90
2019-05-14T14:11:02.496Z,0.70
2019-05-14T14:13:28.538Z,0.73
2019-05-14T14:15:58.879Z,1.20
2019-05-14T14:19:09.237Z,0.97
2019-05-14T14:21:39.594Z,0.80
2019-05-14T14:24:09.611Z,1.00
2019-05-14T14:26:39.290Z,0.90
2019-05-14T14:29:09.220Z,0.83
2019-05-14T14:31:41.409Z,0.60
2019-05-14T14:34:09.114Z,0.80
2019-05-14T14:36:38.602Z,0.90
2019-05-14T14:39:09.505Z,0.90
2019-05-14T14:41:38.417Z,1.13
2019-05-14T14:44:08.807Z,1.20
2019-05-14T14:46:36.348Z,0.80
2019-05-14T14:49:04.436Z,0.70
2019-05-14T14:51:33.010Z,0.80
2019-05-14T14:54:10.195Z,0.60
2019-05-14T14:56:31.292Z,0.90
2019-05-14T14:58:59.692Z,1.00
2019-05-14T15:01:30.018Z,1.10
2019-05-14T15:04:00.027Z,1.17
2019-05-14T15:06:30.599Z,1.00
2019-05-14T15:12:09.059Z,0.80
2019-05-14T15:14:39.569Z,0.80
2019-05-14T15:17:09.588Z,1.10
2019-05-14T15:19:39.522Z,0.80
2019-05-14T15:22:08.810Z,1.23
2019-05-14T15:27:49.019Z,1.00
2019-05-14T15:30:17.335Z,1.10
2019-05-14T15:35:55.012Z,1.00
2019-05-14T15:38:23.556Z,0.73
2019-05-14T15:40:52.523Z,0.73
2019-05-14T15:43:20.585Z,0.90
2019-05-14T15:45:48.763Z,0.80
2019-05-14T15:48:19.948Z,0.70
2019-05-14T15:50:49.915Z,0.70
2019-05-14T15:53:19.440Z,0.80
2019-05-14T15:55:49.091Z,1.00
2019-05-14T15:58:21.295Z,0.57
2019-05-14T16:00:48.338Z,1.10
2019-05-14T16:03:18.662Z,0.67
2019-05-14T16:05:48.843Z,0.80
2019-05-14T16:08:22.185Z,0.90
2019-05-14T16:10:46.707Z,1.23
2019-05-14T16:13:14.920Z,0.87
2019-05-14T16:15:43.685Z,0.77
2019-05-14T16:18:18.673Z,1.00
2019-05-14T16:20:42.010Z,0.83
2019-05-14T16:23:10.917Z,0.80
2019-05-14T16:25:39.643Z,0.93
2019-05-14T16:28:08.757Z,0.80
2019-05-14T16:30:39.673Z,1.13
2019-05-14T16:33:09.316Z,0.93
2019-05-14T16:35:39.272Z,0.70
2019-05-14T16:38:08.475Z,1.00
2019-05-14T16:40:39.587Z,1.50
2019-05-14T16:43:07.243Z,1.00
2019-05-14T16:45:35.609Z,0.93
2019-05-14T16:48:03.674Z,0.90
2019-05-14T16:50:32.200Z,0.97
2019-05-14T16:53:11.569Z,0.80
2019-05-14T16:55:40.265Z,0.80
2019-05-14T16:58:08.999Z,0.70
2019-05-14T17:00:37.940Z,0.90
2019-05-14T17:03:08.318Z,0.60
2019-05-14T17:05:38.186Z,0.73
2019-05-14T17:08:06.324Z,0.97
2019-05-14T17:10:34.624Z,1.00
2019-05-14T17:13:02.732Z,0.90
2019-05-14T17:15:30.899Z,1.20
2019-05-14T17:17:59.900Z,0.70
2019-05-14T17:20:28.205Z,0.90
2019-05-14T17:26:05.499Z,0.83
2019-05-14T17:28:36.774Z,1.00
2019-05-14T17:31:03.370Z,0.60
2019-05-14T17:33:31.497Z,0.63
2019-05-14T17:36:00.048Z,1.00
2019-05-14T17:38:29.186Z,1.13
2019-05-14T17:40:59.769Z,0.70
2019-05-14T17:43:28.378Z,1.27
2019-05-14T17:45:58.721Z,0.60
2019-05-14T17:48:28.467Z,0.60
2019-05-14T17:50:58.954Z,0.90
2019-05-14T17:53:28.958Z,0.80
2019-05-14T17:55:59.135Z,0.50
2019-05-14T18:01:48.242Z,0.90
2019-05-14T18:07:38.001Z,0.90
2019-05-14T18:10:08.558Z,0.90
2019-05-14T18:12:38.908Z,0.80
2019-05-14T18:15:08.389Z,0.73
2019-05-14T18:17:35.715Z,0.90
2019-05-14T18:20:04.167Z,0.80
2019-05-14T18:22:32.380Z,0.87
2019-05-14T18:25:01.243Z,0.90
2019-05-14T18:27:29.505Z,1.23
2019-05-14T18:29:59.270Z,1.00
2019-05-14T18:32:27.532Z,1.10
2019-05-14T18:34:57.996Z,1.20
2019-05-14T18:37:25.612Z,0.90
2019-05-14T18:39:53.870Z,0.87
2019-05-14T18:42:22.014Z,0.70
2019-05-14T18:44:50.174Z,1.07
2019-05-14T18:47:20.091Z,0.70
2019-05-14T18:49:48.614Z,0.90
2019-05-14T18:52:18.456Z,0.90
2019-05-14T18:54:48.385Z,1.07
2019-05-14T18:57:18.126Z,0.90
2019-05-14T18:59:49.303Z,1.10
2019-05-14T19:02:18.526Z,1.20
2019-05-14T19:04:48.449Z,0.90
2019-05-14T19:07:18.922Z,1.23
2019-05-14T19:09:49.471Z,0.83
2019-05-14T19:12:19.051Z,0.83
2019-05-14T19:14:49.233Z,0.70
2019-05-14T19:17:20.931Z,1.03
2019-05-14T19:19:49.026Z,1.00
2019-05-14T19:22:17.434Z,1.27
2019-05-14T19:24:45.876Z,0.90
2019-05-14T19:27:14.074Z,0.87
2019-05-14T19:29:42.596Z,0.80
2019-05-14T19:32:10.867Z,0.90
2019-05-14T19:34:39.128Z,1.37
2019-05-14T19:37:08.320Z,1.30
2019-05-14T19:39:38.613Z,1.80
2019-05-14T19:42:08.622Z,1.43
2019-05-14T19:44:36.982Z,1.23
2019-05-14T19:47:05.580Z,2.13
2019-05-14T19:49:33.851Z,1.10
2019-05-14T19:52:02.057Z,1.43
2019-05-14T19:54:31.121Z,0.70
2019-05-14T19:57:00.855Z,1.10
2019-05-14T19:59:29.208Z,1.23
2019-05-14T20:01:58.952Z,1.17
2019-05-14T20:04:29.168Z,1.20
2019-05-14T20:06:57.891Z,1.27
2019-05-14T20:09:28.084Z,1.00
2019-05-14T20:11:58.131Z,1.10
2019-05-14T20:14:28.552Z,0.80
2019-05-14T20:16:58.296Z,0.90
2019-05-14T20:19:28.551Z,1.17
2019-05-14T20:21:58.641Z,1.13
2019-05-14T20:24:28.338Z,1.27
2019-05-14T20:27:07.705Z,1.60
2019-05-14T20:29:26.996Z,1.40
2019-05-14T20:31:55.535Z,1.10
2019-05-14T20:34:23.991Z,1.20
2019-05-14T20:39:29.402Z,1.30
2019-05-14T20:41:58.413Z,1.37
2019-05-14T20:44:28.034Z,1.23
2019-05-14T20:50:08.725Z,1.40
2019-05-14T20:52:36.496Z,1.17
2019-05-14T20:55:05.103Z,1.27
2019-05-14T20:57:33.820Z,1.80
2019-05-14T21:00:02.095Z,1.30
2019-05-14T21:02:30.822Z,1.43
2019-05-14T21:05:04.569Z,1.53
2019-05-14T21:08:04.627Z,1.30
2019-05-14T21:10:32.887Z,1.40
2019-05-14T21:13:01.892Z,1.40
2019-05-14T21:15:30.198Z,1.30
2019-05-14T21:17:59.580Z,1.90
2019-05-14T21:20:28.442Z,1.40
2019-05-14T21:22:58.563Z,1.70
2019-05-14T21:25:29.296Z,1.30
2019-05-14T21:27:58.817Z,1.57
2019-05-14T21:30:29.639Z,1.20
2019-05-14T21:33:00.382Z,1.37
2019-05-14T21:35:29.214Z,1.30
2019-05-14T21:37:59.389Z,1.10
2019-05-14T21:40:31.663Z,1.30
2019-05-14T21:42:57.630Z,1.50
2019-05-14T21:45:26.086Z,1.30
2019-05-14T21:47:54.172Z,1.40
2019-05-14T21:50:22.307Z,1.60
2019-05-14T21:52:50.396Z,1.63
2019-05-14T21:55:19.848Z,1.33
2019-05-14T21:57:56.102Z,1.30
2019-05-14T22:00:20.242Z,1.67
2019-05-14T22:02:49.162Z,1.30
2019-05-14T22:05:19.016Z,1.40
2019-05-14T22:07:48.503Z,1.33
2019-05-14T22:10:19.096Z,1.57
2019-05-14T22:12:48.762Z,1.67
2019-05-14T22:15:18.373Z,1.30
2019-05-14T22:17:48.978Z,1.73
2019-05-14T22:20:18.991Z,1.70
2019-05-14T22:22:48.312Z,1.30
2019-05-14T22:25:16.177Z,1.70
2019-05-14T22:27:48.186Z,1.20
2019-05-14T22:30:18.029Z,1.43
2019-05-14T22:32:45.457Z,1.53
2019-05-14T22:35:13.537Z,1.17
2019-05-14T22:37:41.602Z,1.43
2019-05-14T22:40:09.698Z,1.40
2019-05-14T22:42:39.218Z,1.57
2019-05-14T22:45:09.382Z,0.90
2019-05-14T22:47:39.990Z,1.13
2019-05-14T22:50:08.986Z,1.17
2019-05-14T22:52:38.592Z,1.30
2019-05-14T22:55:07.140Z,1.10
2019-05-14T22:57:35.190Z,1.20
2019-05-14T23:00:03.256Z,1.27
2019-05-14T23:02:31.301Z,1.27
2019-05-14T23:04:59.427Z,1.33
2019-05-14T23:07:27.678Z,1.17
2019-05-14T23:09:55.965Z,1.50
2019-05-14T23:12:24.017Z,1.20
2019-05-14T23:14:52.108Z,1.40
2019-05-14T23:17:20.199Z,1.17
2019-05-14T23:19:48.438Z,1.53
2019-05-14T23:22:18.543Z,1.03
2019-05-14T23:24:46.261Z,1.00
2019-05-14T23:27:14.301Z,1.30
2019-05-14T23:29:42.550Z,1.00
2019-05-14T23:32:10.611Z,1.10
2019-05-14T23:34:38.823Z,1.00
2019-05-14T23:37:08.211Z,1.20
2019-05-14T23:39:38.373Z,1.27
2019-05-14T23:42:06.408Z,1.10
2019-05-14T23:44:34.430Z,0.87
2019-05-14T23:47:02.492Z,1.00
2019-05-14T23:49:30.584Z,0.97
2019-05-14T23:51:58.681Z,1.20
2019-05-14T23:54:28.949Z,0.90
2019-05-14T23:56:58.386Z,1.00
2019-05-14T23:59:26.229Z,1.00
